Terminal Aerodrome Forecast
Issued by NWS

Current Version | Previous Version | Graphics & Text | Print | Product List | Glossary On
Versions: 1 2 3 4 5 6 7 8 9 10 11 12 13 14 15 16 17 18 19 20 21 22 23 24 25 26 27 28 29 30 31 32 33 34
000
FTUS41 KRNK 171125
TAFLWB
TAF
KLWB 171125Z 1712/1812 02004KT 4SM BR OVC001
      TEMPO 1712/1714 1SM BR SCT001
     FM171400 14003KT P6SM SCT007 OVC025
     FM171800 23003KT P6SM BKN040
     FM180000 00000KT P6SM SCT035
     FM180700 00000KT 2SM BR SCT005
     FM181000 00000KT 1/4SM FG OVC001=

USA.gov is the U.S. government's official web portal to all federal, state and local government web resources and services.